Philadelphia, Pennsylvania
Traffic Map
Current Weather Conditions
Philadelphia, Pennsylvania
Broken Clouds
Broken Clouds
86°
Feels Like: 88°
Wind Chill: 86° Ceiling: 30000
Heat Index: 88° Visibility: 10mi
Dew Point: 65° Wind: 7mph
Humidity: 49% Direction: 230° (SW)
Pressure: 30.19in Gusts: 0mph
Raw Report DataKPHL 292154Z 23006KT 10SM SCT055 SCT090 BKN300 30/18 A3019 RMK AO2 SLP221 T03000183
Traffic Incident Summary
Active as of:
Severity:
Category:
InformationThere was an issue retrieving the traffic information for this location. Please try a different location or try again shortly.
Advertisements
Track Severe Weather on mobile